Rawmarsh, United Kingdom
Current Conditions -  °F | °C
As of 6:50 AM on Monday 22 Dec 2014 (Local Time) from EGCN Reporting Station
Overcast Overcast  
Wind Chill: 13°   Ceiling: 2500
Heat Index: 13°   Visibility: 6mi
Dew Point:   Wind: 24mph
Humidity: 77%   Direction: 220°SW
Pressure: 29.83"   Gusts: NA
Location:  53.46°N, 1.34°W
Report Text: EGCN 220650Z 22021KT 9999 BKN025 OVC030 13/09 Q1010
Loading
Personal Weather Stations






























Interactive Weather Map New forecast layout! Learn more

10-Day Weather Forecast

Advertisements
Track Severe Weather on mobile